Aeroporto :
LOGIN :

Iscrizione | Disclaimer

   EN    FR    IT 

 










Sommario :    VFR   VFR Marginale   IFR   IFR Intensivo   IFR Molto Intensivo
Visibilità : 
Base nubi : 
>= 8 km
>= 3000ft
5 / 8 km
1000 / 3000 ft
1500m / 5 km
500 / 1000 ft
800 / 1500m
200 / 500 ft
< 800m
< 200 ft
Simboli :   Temporali  Nebbia  Neve Forte  Precipitazioni Forti  Vento > 20 kt
SIGMETs :   Varie  Temporali  Ghiacco  Turbolenza  Onda orograficha  Ceneri Vulcaniche






- Altitudine del aeroporto : 204 ft
- Codice IATA : AGF


LFBA - Agen

ULTIMO METAR :
  • 210930Z AUTO 26010KT 220V290 9999 SCT022 BKN027 BKN035 20/15 Q1015 NOSIG

METARs OBSOLETI :
  • 210900Z AUTO 26011KT 220V280 9999 SCT023 BKN028 BKN035 21/15 Q1015 NOSIG
  • 210830Z AUTO 27013KT 9999 SCT020 BKN029 BKN034 20/15 Q1015 NOSIG
  • 210800Z AUTO 26012KT 220V290 9999 BKN019 BKN070 20/15 Q1014 NOSIG
  • 210730Z AUTO 26014KT 9999 BKN019 OVC072 20/16 Q1014 NOSIG
  • 210700Z AUTO 26012KT 220V280 9999 BKN016 BKN021 BKN042 19/16 Q1014 NOSIG
  • 210630Z AUTO 26011KT 230V290 9999 OVC016 19/16 Q1013 NOSIG
  • 210600Z AUTO 26012KT 9999 FEW020 SCT030 BKN039 19/16 Q1013 NOSIG
  • 210530Z AUTO 25008KT 220V290 9999 FEW019 SCT042 BKN062 19/16 Q1013 TEMPO 4500 -SHRA BKN020TCU
  • 210500Z AUTO 26010KT 230V290 9999 FEW017/// BKN058/// OVC074/// ///TCU 19/16 Q1013 TEMPO 4500 -SHRA

TAF TAF LFBA
Valido dal 21 a 09 ore il 21 a 18 ore UTC


210800Z 2109/2118 26010KT 9999 BKN020
PROB40
TEMPO 2112/2118 25015G25KT 4000 -SHRA SCT025TCU



MetMap, La meteo Aeronautica in un colpo d'occhio ! - Copyright ORBIFLY Dicembre 2007 - Disclaimer

ORBIFLY MET'MAP TEAM :

Programmazione e sviluppo : Alexandra Zaïnal
Concezione : Baudouin d'Aumeries
Supporto tecnico e logistico : Manuel Goepfert
Aiuto : Marc-Olivier Méhu
Aiuto per la traduzione : Arnaldo La Scala




FONTI E CREDITI :

   NOAA